Time;durP1;ratioP1;P1;durP2;ratioP2;P2;SDS_P1;SDS_P2;PMS_P1;PMS_P2;Temp;Humidity;BMP_temperature;BMP_pressure;BME280_temperature;BME280_humidity;BME280_pressure;Samples;Min_cycle;Max_cycle;Signal;HPM_P1;HPM_P2
2021/05/27 00:01:18;;;;;;;3.10;0.90;;;9.70;99.90;;;;;;5073245;28;20032;-78
2021/05/27 00:03:43;;;;;;;1.90;0.88;;;9.70;99.90;;;;;;5072957;28;20024;-77
2021/05/27 00:06:09;;;;;;;1.98;0.95;;;9.60;99.90;;;;;;5071695;28;20028;-77
2021/05/27 00:08:34;;;;;;;2.85;0.75;;;9.60;99.90;;;;;;5071641;28;20070;-78
2021/05/27 00:11:00;;;;;;;1.42;0.90;;;9.60;99.90;;;;;;5072915;28;20028;-77
2021/05/27 00:13:26;;;;;;;1.88;0.82;;;9.40;99.90;;;;;;5072859;28;20480;-77
2021/05/27 00:15:52;;;;;;;1.30;0.95;;;9.50;99.90;;;;;;5072823;28;20427;-78
2021/05/27 00:18:17;;;;;;;2.25;1.20;;;9.60;99.90;;;;;;5073076;28;20067;-77
2021/05/27 00:20:43;;;;;;;1.67;0.80;;;9.60;99.90;;;;;;5072797;28;20021;-77
2021/05/27 00:23:09;;;;;;;2.78;1.20;;;9.70;99.90;;;;;;5071506;28;20109;-78
2021/05/27 00:25:34;;;;;;;1.80;1.13;;;9.60;99.90;;;;;;5071436;28;20372;-77
2021/05/27 00:28:00;;;;;;;2.60;0.98;;;9.70;99.90;;;;;;5071479;28;20035;-77
2021/05/27 00:30:26;;;;;;;2.55;1.00;;;9.80;99.90;;;;;;5071419;28;20036;-77
2021/05/27 00:32:52;;;;;;;1.90;1.00;;;9.80;99.90;;;;;;5072954;28;20020;-77
2021/05/27 00:35:18;;;;;;;1.92;0.82;;;9.90;99.90;;;;;;5072722;28;20491;-77
2021/05/27 00:37:45;;;;;;;10.50;1.50;;;9.80;99.90;;;;;;5071376;28;20520;-78
2021/05/27 00:40:13;;;;;;;1.48;0.82;;;9.90;99.90;;;;;;5072936;28;20036;-77
2021/05/27 00:42:42;;;;;;;1.38;0.82;;;9.90;99.90;;;;;;5074969;28;20029;-77
2021/05/27 00:45:10;;;;;;;6.65;1.23;;;9.90;99.90;;;;;;5076154;28;20023;-77
2021/05/27 00:47:36;;;;;;;2.38;1.10;;;10.00;99.90;;;;;;5076043;28;20556;-77
2021/05/27 00:50:04;;;;;;;2.72;1.00;;;9.90;99.90;;;;;;5074891;28;20028;-77
2021/05/27 00:52:32;;;;;;;2.45;0.80;;;9.90;99.90;;;;;;5076317;28;20108;-78
2021/05/27 00:54:59;;;;;;;1.10;0.95;;;9.90;99.90;;;;;;5074675;28;20404;-77
2021/05/27 00:57:31;;;;;;;1.25;0.95;;;9.90;99.90;;;;;;5075951;28;20472;-77
2021/05/27 00:59:58;;;;;;;2.97;1.00;;;9.90;99.90;;;;;;5074900;28;20091;-77
2021/05/27 01:02:24;;;;;;;1.98;0.93;;;9.90;99.90;;;;;;5075935;28;20025;-77
2021/05/27 01:04:50;;;;;;;2.42;0.98;;;9.90;99.90;;;;;;5074555;28;20031;-78
2021/05/27 01:07:16;;;;;;;2.05;0.95;;;9.80;99.90;;;;;;5075838;28;20479;-77
2021/05/27 01:09:42;;;;;;;3.30;1.10;;;9.80;99.90;;;;;;5075767;28;20128;-77
2021/05/27 01:12:09;;;;;;;2.05;0.80;;;9.90;99.90;;;;;;5075721;28;20024;-77
2021/05/27 01:17:19;;;;;;;2.17;0.88;;;9.80;99.90;;;;;;5075951;28;20024;-77
2021/05/27 01:19:45;;;;;;;1.15;0.85;;;9.60;99.90;;;;;;5075565;28;20469;-77
2021/05/27 01:22:11;;;;;;;3.15;0.95;;;9.70;99.90;;;;;;5075799;28;20024;-77
2021/05/27 01:24:36;;;;;;;2.25;0.80;;;9.70;99.90;;;;;;5075716;28;20032;-77
2021/05/27 01:27:02;;;;;;;2.85;0.90;;;9.60;99.90;;;;;;5074111;28;20024;-77
2021/05/27 01:29:28;;;;;;;2.83;0.80;;;9.60;99.90;;;;;;5074151;28;20115;-77
2021/05/27 01:31:53;;;;;;;4.57;1.05;;;9.50;99.90;;;;;;5074099;28;20035;-77
2021/05/27 01:34:19;;;;;;;1.80;0.90;;;9.40;99.90;;;;;;5075087;28;20044;-77
2021/05/27 01:36:46;;;;;;;2.63;1.00;;;9.50;99.90;;;;;;5074055;28;20368;-77
2021/05/27 01:39:13;;;;;;;2.00;0.95;;;9.60;99.90;;;;;;5075460;28;20025;-77
2021/05/27 01:41:38;;;;;;;3.03;1.02;;;9.60;99.90;;;;;;5075133;28;20095;-77
2021/05/27 01:44:04;;;;;;;6.18;1.17;;;9.60;99.90;;;;;;5073854;28;20052;-77
2021/05/27 01:46:30;;;;;;;2.03;0.90;;;9.70;99.90;;;;;;5075013;28;20028;-77
2021/05/27 01:48:56;;;;;;;1.98;1.00;;;9.70;99.90;;;;;;5075296;28;20040;-77
2021/05/27 01:51:21;;;;;;;4.30;1.00;;;9.80;99.90;;;;;;5073661;28;20035;-77
2021/05/27 01:53:47;;;;;;;0.88;0.77;;;9.80;99.90;;;;;;5075133;28;20035;-77
2021/05/27 01:56:13;;;;;;;2.55;1.00;;;9.80;99.90;;;;;;5074881;28;20028;-77
2021/05/27 01:58:39;;;;;;;1.27;0.88;;;9.80;99.90;;;;;;5073803;28;20059;-78
2021/05/27 02:01:06;;;;;;;3.28;1.20;;;9.90;99.90;;;;;;5073549;28;20016;-78
2021/05/27 02:03:32;;;;;;;2.58;0.85;;;9.90;99.90;;;;;;5074991;28;20028;-77
2021/05/27 02:05:58;;;;;;;4.05;0.80;;;9.90;99.90;;;;;;5073394;28;20073;-77
2021/05/27 02:08:23;;;;;;;1.17;0.80;;;9.90;99.90;;;;;;5074584;28;20418;-77
2021/05/27 02:10:49;;;;;;;1.70;0.82;;;10.00;99.90;;;;;;5073211;28;20052;-77
2021/05/27 02:13:15;;;;;;;4.82;0.82;;;9.90;99.90;;;;;;5074732;28;20460;-77
2021/05/27 02:15:41;;;;;;;3.13;1.08;;;9.80;99.90;;;;;;5074473;28;20032;-77
2021/05/27 02:18:06;;;;;;;2.20;0.80;;;9.80;99.90;;;;;;5074449;28;20024;-77
2021/05/27 02:20:32;;;;;;;0.98;0.70;;;9.90;99.90;;;;;;5074384;28;20021;-77
2021/05/27 02:22:58;;;;;;;3.45;0.93;;;10.00;99.90;;;;;;5074340;28;20017;-77
2021/05/27 02:25:24;;;;;;;2.13;0.90;;;10.10;99.90;;;;;;5074271;28;20027;-77
2021/05/27 02:27:50;;;;;;;2.08;0.80;;;10.10;99.90;;;;;;5074225;28;20028;-77
2021/05/27 02:30:16;;;;;;;5.05;1.00;;;10.00;99.90;;;;;;5072924;28;20476;-77
2021/05/27 02:32:42;;;;;;;5.28;0.95;;;10.00;99.90;;;;;;5072957;28;20532;-78
2021/05/27 02:35:08;;;;;;;2.75;0.90;;;9.80;99.90;;;;;;5074294;28;20129;-77
2021/05/27 02:37:34;;;;;;;1.02;0.80;;;9.90;99.90;;;;;;5072752;28;20044;-77
2021/05/27 02:40:00;;;;;;;1.95;1.00;;;9.90;99.90;;;;;;5072757;28;20071;-77
2021/05/27 02:42:25;;;;;;;0.80;0.75;;;10.00;99.90;;;;;;5072723;28;20107;-77
2021/05/27 02:44:51;;;;;;;2.80;0.70;;;10.10;99.90;;;;;;5074470;28;20468;-77
2021/05/27 02:47:17;;;;;;;0.90;0.50;;;10.10;99.90;;;;;;5073760;28;20020;-77
2021/05/27 02:49:42;;;;;;;1.38;0.88;;;10.00;99.90;;;;;;5073829;28;20441;-77
2021/05/27 02:52:08;;;;;;;3.13;1.00;;;9.90;99.90;;;;;;5073776;28;20029;-77
2021/05/27 02:54:34;;;;;;;2.13;0.70;;;9.80;99.90;;;;;;5073692;28;20028;-77
2021/05/27 02:57:00;;;;;;;1.60;0.73;;;9.80;99.90;;;;;;5072721;28;20445;-77
2021/05/27 02:59:26;;;;;;;0.98;0.88;;;9.80;99.90;;;;;;5072420;28;20108;-77
2021/05/27 03:01:53;;;;;;;2.40;0.90;;;9.70;99.90;;;;;;5073648;28;20021;-77
2021/05/27 03:04:19;;;;;;;2.88;0.90;;;9.80;99.90;;;;;;5073487;28;20528;-77
2021/05/27 03:06:45;;;;;;;2.22;1.00;;;9.70;99.90;;;;;;5072344;28;20373;-77
2021/05/27 03:09:11;;;;;;;2.58;0.90;;;9.90;99.90;;;;;;5072286;28;20027;-77
2021/05/27 03:11:37;;;;;;;2.70;0.90;;;9.90;99.90;;;;;;5072293;28;20032;-77
2021/05/27 03:14:03;;;;;;;4.22;1.02;;;9.80;99.90;;;;;;5073418;28;20067;-77
2021/05/27 03:16:28;;;;;;;1.40;0.70;;;9.80;99.90;;;;;;5073712;28;20028;-77
2021/05/27 03:18:54;;;;;;;0.98;0.70;;;9.70;99.90;;;;;;5073434;28;20024;-77
2021/05/27 03:21:20;;;;;;;2.67;0.80;;;9.60;99.90;;;;;;5073708;28;20012;-78
2021/05/27 03:23:46;;;;;;;2.78;0.75;;;9.70;99.90;;;;;;5073376;28;20365;-77
2021/05/27 03:26:14;;;;;;;1.52;1.00;;;9.70;99.90;;;;;;5073402;28;20051;-77
2021/05/27 03:28:40;;;;;;;1.60;0.85;;;9.60;99.90;;;;;;5073327;28;20017;-77
2021/05/27 03:31:05;;;;;;;5.15;0.80;;;9.50;99.90;;;;;;5072296;28;20035;-78
2021/05/27 03:33:31;;;;;;;1.67;1.10;;;9.50;99.90;;;;;;5073051;28;20119;-77
2021/05/27 03:35:57;;;;;;;2.88;0.90;;;9.50;99.90;;;;;;5073233;28;20499;-77
2021/05/27 03:38:22;;;;;;;2.47;0.80;;;9.50;99.90;;;;;;5073514;28;20052;-77
2021/05/27 03:40:48;;;;;;;2.10;1.10;;;9.50;99.90;;;;;;5071919;28;20028;-78
2021/05/27 03:43:14;;;;;;;1.20;0.80;;;9.50;99.90;;;;;;5073150;28;20099;-77
2021/05/27 03:45:39;;;;;;;1.42;0.90;;;9.50;99.90;;;;;;5073062;28;20499;-77
2021/05/27 03:48:06;;;;;;;4.22;1.33;;;9.50;99.90;;;;;;5071845;28;20020;-77
2021/05/27 03:50:32;;;;;;;3.20;1.02;;;9.60;99.90;;;;;;5073384;28;20024;-77
2021/05/27 03:53:00;;;;;;;2.45;0.80;;;9.50;99.90;;;;;;5073002;28;20121;-77
2021/05/27 03:55:26;;;;;;;4.47;2.35;;;9.60;99.90;;;;;;5073352;28;20012;-77
2021/05/27 03:57:53;;;;;;;2.40;1.10;;;9.80;99.90;;;;;;5073065;28;20383;-78
2021/05/27 04:03:07;;;;;;;1.40;0.88;;;10.00;99.90;;;;;;5073586;28;20173;-77
2021/05/27 04:08:18;;;;;;;2.22;0.85;;;10.10;99.90;;;;;;5073283;28;20036;-78
2021/05/27 04:10:45;;;;;;;3.25;0.93;;;10.20;99.90;;;;;;5071691;28;20408;-77
2021/05/27 04:13:11;;;;;;;1.23;0.80;;;10.20;99.90;;;;;;5071575;28;20025;-77
2021/05/27 04:15:38;;;;;;;2.10;0.88;;;10.20;99.90;;;;;;5073770;28;20111;-78
2021/05/27 04:18:15;;;;;;;1.58;0.70;;;10.20;99.90;;;;;;5076767;28;20177;-78
2021/05/27 04:20:54;;;;;;;3.35;1.20;;;10.10;99.90;;;;;;5076742;28;20023;-78
2021/05/27 04:23:38;;;;;;;1.30;0.80;;;10.00;99.90;;;;;;5076956;28;20020;-78
2021/05/27 04:26:05;;;;;;;2.00;0.80;;;9.90;99.90;;;;;;5075338;28;20061;-77
2021/05/27 04:28:32;;;;;;;3.92;0.88;;;9.90;99.90;;;;;;5075264;28;20028;-77
2021/05/27 04:31:14;;;;;;;2.53;1.10;;;9.80;99.90;;;;;;5076462;28;20056;-77
2021/05/27 04:33:54;;;;;;;5.18;1.35;;;9.90;99.90;;;;;;5074953;28;20045;-77
2021/05/27 04:36:20;;;;;;;2.78;1.55;;;9.90;99.90;;;;;;5075137;28;20109;-77
2021/05/27 04:38:47;;;;;;;4.80;1.77;;;9.90;99.90;;;;;;5075063;28;20028;-78
2021/05/27 04:41:13;;;;;;;2.75;1.17;;;9.90;99.90;;;;;;5075001;28;20166;-77
2021/05/27 04:43:40;;;;;;;2.30;1.17;;;9.90;99.90;;;;;;5074998;28;20029;-77
2021/05/27 04:46:06;;;;;;;2.33;1.10;;;10.00;99.90;;;;;;5074864;28;20029;-77
2021/05/27 04:48:32;;;;;;;4.60;0.95;;;10.00;99.90;;;;;;5074900;28;20078;-77
2021/05/27 04:50:58;;;;;;;1.40;1.15;;;10.00;99.90;;;;;;5074872;28;20029;-77
2021/05/27 04:53:25;;;;;;;1.35;0.90;;;10.10;99.90;;;;;;5074720;28;20138;-77
2021/05/27 04:55:52;;;;;;;3.10;1.10;;;10.10;99.90;;;;;;5074716;28;20078;-77
2021/05/27 04:58:18;;;;;;;7.28;1.10;;;10.00;99.90;;;;;;5075979;28;20545;-77
2021/05/27 05:00:44;;;;;;;1.75;1.10;;;9.90;99.90;;;;;;5075943;28;20021;-77
2021/05/27 05:03:10;;;;;;;3.15;1.23;;;9.90;99.90;;;;;;5075889;28;20020;-77
2021/05/27 05:05:37;;;;;;;1.83;1.02;;;9.90;99.90;;;;;;5074661;28;20024;-77
2021/05/27 05:08:04;;;;;;;1.67;1.10;;;9.90;99.90;;;;;;5075812;28;20021;-77
2021/05/27 05:10:31;;;;;;;2.22;1.00;;;9.90;99.90;;;;;;5074523;28;20499;-77
2021/05/27 05:12:57;;;;;;;1.95;1.02;;;10.00;99.90;;;;;;5074393;28;20361;-77
2021/05/27 05:15:24;;;;;;;2.08;1.00;;;10.10;99.90;;;;;;5074377;28;20021;-77
2021/05/27 05:17:55;;;;;;;3.85;1.40;;;10.20;99.90;;;;;;5074318;28;20021;-77
2021/05/27 05:20:23;;;;;;;2.17;1.10;;;10.20;99.90;;;;;;5075541;28;20025;-77
2021/05/27 05:22:50;;;;;;;1.77;1.30;;;10.30;99.90;;;;;;5075458;28;20023;-77
2021/05/27 05:25:17;;;;;;;3.63;1.17;;;10.30;99.90;;;;;;5074175;28;20028;-77
2021/05/27 05:27:43;;;;;;;2.42;1.08;;;10.20;99.90;;;;;;5075093;28;20029;-77
2021/05/27 05:30:10;;;;;;;3.67;1.40;;;10.20;99.90;;;;;;5075353;28;20032;-77
2021/05/27 05:32:36;;;;;;;2.72;1.10;;;10.20;99.90;;;;;;5075876;28;20031;-77
2021/05/27 05:35:04;;;;;;;3.22;1.10;;;10.30;99.90;;;;;;5073931;28;20415;-77
2021/05/27 05:37:29;;;;;;;2.53;1.10;;;10.20;99.90;;;;;;5073921;28;20027;-77
2021/05/27 05:39:55;;;;;;;4.20;1.30;;;10.20;99.90;;;;;;5073884;28;20391;-77
2021/05/27 05:42:21;;;;;;;3.72;1.40;;;10.10;99.90;;;;;;5073859;28;20021;-77
2021/05/27 05:44:47;;;;;;;7.38;1.50;;;10.20;99.90;;;;;;5075318;28;20025;-77
2021/05/27 05:47:12;;;;;;;3.35;1.20;;;10.20;99.90;;;;;;5074951;28;20430;-77
2021/05/27 05:49:38;;;;;;;2.60;1.02;;;10.20;99.90;;;;;;5075567;28;20441;-77
2021/05/27 05:52:04;;;;;;;3.75;1.20;;;10.30;99.90;;;;;;5073683;28;20392;-77
2021/05/27 05:54:30;;;;;;;2.72;1.40;;;10.40;99.90;;;;;;5074817;28;20033;-77
2021/05/27 05:56:55;;;;;;;6.43;1.20;;;10.40;99.90;;;;;;5074888;28;20024;-77
2021/05/27 05:59:21;;;;;;;3.65;1.38;;;10.40;99.90;;;;;;5073452;28;20025;-77
2021/05/27 06:01:48;;;;;;;5.68;1.40;;;10.40;99.90;;;;;;5074785;28;20024;-77
2021/05/27 06:04:14;;;;;;;5.03;1.50;;;10.50;99.90;;;;;;5073768;28;20115;-77
2021/05/27 06:06:40;;;;;;;2.75;1.38;;;10.50;99.90;;;;;;5073424;28;20048;-77
2021/05/27 06:09:05;;;;;;;3.60;1.20;;;10.50;99.90;;;;;;5074582;28;20079;-77
2021/05/27 06:11:31;;;;;;;2.15;1.67;;;10.60;99.90;;;;;;5074072;28;20031;-76
2021/05/27 06:13:57;;;;;;;2.45;1.45;;;10.50;99.90;;;;;;5074409;28;20399;-77
2021/05/27 06:16:22;;;;;;;2.83;1.50;;;10.60;99.90;;;;;;5074756;28;20012;-77
2021/05/27 06:18:48;;;;;;;4.13;1.10;;;10.70;99.90;;;;;;5074435;28;20487;-76
2021/05/27 06:21:14;;;;;;;3.53;1.38;;;10.70;99.90;;;;;;5073123;28;20025;-77
2021/05/27 06:23:40;;;;;;;6.63;1.30;;;10.80;99.90;;;;;;5073094;28;20112;-77
2021/05/27 06:26:06;;;;;;;3.97;1.23;;;10.90;99.90;;;;;;5074820;28;20033;-77
2021/05/27 06:28:31;;;;;;;3.03;1.20;;;10.90;99.90;;;;;;5072953;28;20086;-77
2021/05/27 06:30:57;;;;;;;2.88;1.40;;;10.90;99.90;;;;;;5072896;28;20077;-77
2021/05/27 06:33:24;;;;;;;3.90;1.30;;;11.00;99.90;;;;;;5072584;28;20048;-77
2021/05/27 06:35:50;;;;;;;2.33;1.00;;;11.00;99.90;;;;;;5074123;28;20027;-76
2021/05/27 06:38:16;;;;;;;2.70;0.90;;;11.10;99.90;;;;;;5072136;28;20024;-77
2021/05/27 06:40:42;;;;;;;2.00;1.00;;;11.10;99.90;;;;;;5072911;28;20476;-77
2021/05/27 06:43:07;;;;;;;7.88;1.30;;;11.10;99.90;;;;;;5072660;28;20032;-77
2021/05/27 06:45:34;;;;;;;8.18;1.10;;;11.30;99.90;;;;;;5074181;28;20102;-76
2021/05/27 06:48:00;;;;;;;3.75;1.42;;;11.30;99.90;;;;;;5072421;28;20112;-77
2021/05/27 06:50:40;;;;;;;2.45;1.20;;;11.30;99.90;;;;;;5073866;28;20441;-77
2021/05/27 06:53:10;;;;;;;4.68;1.05;;;11.40;99.90;;;;;;5073719;28;20013;-77
2021/05/27 06:55:38;;;;;;;3.38;1.00;;;11.50;99.90;;;;;;5072487;28;20387;-77
2021/05/27 06:58:05;;;;;;;5.60;1.35;;;11.40;99.90;;;;;;5072446;28;20031;-77
2021/05/27 07:00:31;;;;;;;1.67;0.85;;;11.50;99.90;;;;;;5072424;28;20027;-77
2021/05/27 07:02:57;;;;;;;4.78;1.10;;;11.30;99.90;;;;;;5073608;28;20025;-77
2021/05/27 07:05:24;;;;;;;2.83;0.93;;;11.20;99.90;;;;;;5072365;28;20086;-77
2021/05/27 07:07:50;;;;;;;2.67;1.10;;;11.30;99.90;;;;;;5073541;28;20024;-77
2021/05/27 07:10:17;;;;;;;2.03;1.00;;;11.60;99.90;;;;;;5073578;28;20048;-77
2021/05/27 07:13:08;;;;;;;2.85;1.10;;;11.70;99.90;;;;;;5072282;28;20519;-77
2021/05/27 07:15:36;;;;;;;3.67;1.10;;;11.90;99.90;;;;;;5072267;28;20392;-77
2021/05/27 07:18:02;;;;;;;3.15;1.10;;;11.80;99.90;;;;;;5073434;28;20021;-77
2021/05/27 07:20:28;;;;;;;2.17;1.17;;;11.80;99.90;;;;;;5073408;28;20472;-76
2021/05/27 07:22:55;;;;;;;2.22;1.33;;;12.00;99.90;;;;;;5072123;28;20027;-77
2021/05/27 07:25:23;;;;;;;4.57;1.60;;;12.10;99.90;;;;;;5073366;28;20028;-77
2021/05/27 07:27:52;;;;;;;3.35;1.00;;;12.10;99.90;;;;;;5073594;28;20024;-77
2021/05/27 07:30:20;;;;;;;4.80;1.00;;;12.10;99.90;;;;;;5072020;28;20021;-76
2021/05/27 07:32:47;;;;;;;6.18;0.98;;;12.10;99.90;;;;;;5073055;28;20384;-77
2021/05/27 07:35:13;;;;;;;4.93;1.10;;;12.20;99.90;;;;;;5071950;28;20031;-77
2021/05/27 07:37:40;;;;;;;3.22;0.85;;;12.20;99.90;;;;;;5072014;28;20489;-76
2021/05/27 07:40:07;;;;;;;3.15;1.00;;;12.20;99.90;;;;;;5073183;28;20020;-76
2021/05/27 07:42:33;;;;;;;4.03;0.98;;;12.40;99.90;;;;;;5073137;28;20025;-76
2021/05/27 07:44:59;;;;;;;3.83;1.20;;;12.60;99.90;;;;;;5071901;28;20480;-76
2021/05/27 07:47:24;;;;;;;2.95;1.08;;;12.60;99.90;;;;;;5073051;28;20027;-76
2021/05/27 07:49:50;;;;;;;4.00;1.10;;;12.50;99.90;;;;;;5072941;28;20036;-76
2021/05/27 07:52:16;;;;;;;3.90;1.10;;;12.40;99.90;;;;;;5076002;28;20387;-76
2021/05/27 07:54:43;;;;;;;7.40;1.20;;;12.70;99.90;;;;;;5076098;28;20025;-77
2021/05/27 07:57:09;;;;;;;4.00;1.17;;;12.80;99.90;;;;;;5077205;28;20021;-77
2021/05/27 07:59:34;;;;;;;1.95;1.00;;;13.00;99.90;;;;;;5075851;28;20494;-77
2021/05/27 08:02:00;;;;;;;3.88;1.23;;;13.00;99.90;;;;;;5075806;28;20125;-77
2021/05/27 08:04:26;;;;;;;6.75;1.58;;;13.00;99.90;;;;;;5075739;28;20105;-77
2021/05/27 08:06:51;;;;;;;4.05;1.02;;;13.20;99.90;;;;;;5076943;28;20029;-76
2021/05/27 08:09:17;;;;;;;6.60;1.35;;;13.10;99.90;;;;;;5075636;28;20036;-76
2021/05/27 08:11:43;;;;;;;2.75;1.00;;;12.90;99.90;;;;;;5075594;28;20085;-77
2021/05/27 08:14:10;;;;;;;3.72;1.20;;;12.70;99.90;;;;;;5076760;28;20021;-76
2021/05/27 08:16:36;;;;;;;2.20;0.90;;;12.80;99.90;;;;;;5076789;28;20118;-77
2021/05/27 08:19:04;;;;;;;3.55;1.00;;;12.90;99.90;;;;;;5076959;28;20107;-77
2021/05/27 08:21:30;;;;;;;4.88;1.00;;;13.10;99.90;;;;;;5075404;28;20391;-77
2021/05/27 08:23:56;;;;;;;5.53;1.02;;;13.40;99.90;;;;;;5076642;28;20025;-77
2021/05/27 08:26:23;;;;;;;4.60;1.30;;;13.40;99.90;;;;;;5075295;28;20435;-76
2021/05/27 08:28:49;;;;;;;3.97;0.88;;;13.50;99.90;;;;;;5076491;28;20024;-77
2021/05/27 08:31:15;;;;;;;2.47;1.17;;;13.60;99.90;;;;;;5075200;28;20503;-77
2021/05/27 08:33:41;;;;;;;4.10;1.02;;;13.70;99.90;;;;;;5074885;28;20051;-77
2021/05/27 08:36:07;;;;;;;3.15;1.10;;;13.90;99.90;;;;;;5075072;28;20141;-77
2021/05/27 08:38:34;;;;;;;2.03;1.00;;;13.80;99.90;;;;;;5075067;28;20365;-78
2021/05/27 08:41:01;;;;;;;2.47;0.85;;;14.10;99.90;;;;;;5075031;28;20395;-77
2021/05/27 08:43:28;;;;;;;2.08;0.95;;;14.30;99.90;;;;;;5076280;28;20074;-77
2021/05/27 08:45:55;;;;;;;3.45;0.90;;;14.30;99.90;;;;;;5076423;28;20198;-77
2021/05/27 08:48:21;;;;;;;2.95;1.00;;;14.30;99.90;;;;;;5076500;28;20127;-77
2021/05/27 08:50:47;;;;;;;3.30;0.90;;;14.00;99.90;;;;;;5076164;28;20119;-78
2021/05/27 08:53:18;;;;;;;3.03;0.93;;;14.00;99.90;;;;;;5076581;28;20376;-78
2021/05/27 08:55:45;;;;;;;2.08;0.88;;;14.30;99.90;;;;;;5076120;28;20017;-78
2021/05/27 08:58:11;;;;;;;3.53;0.88;;;14.40;99.90;;;;;;5074682;28;20021;-78
2021/05/27 09:00:37;;;;;;;2.05;0.68;;;14.70;99.90;;;;;;5075986;28;20437;-78
2021/05/27 09:03:05;;;;;;;4.75;1.00;;;14.80;99.90;;;;;;5075428;28;20024;-77
2021/05/27 09:05:35;;;;;;;4.72;0.90;;;14.70;99.90;;;;;;5058114;28;20031;-78
2021/05/27 09:08:00;;;;;;;4.00;1.40;;;14.70;99.90;;;;;;5076141;28;20027;-78
2021/05/27 09:10:46;;;;;;;2.92;0.77;;;14.90;99.90;;;;;;5075812;28;20024;-78
2021/05/27 09:13:20;;;;;;;1.67;0.63;;;15.10;99.90;;;;;;5075663;28;20036;-77
2021/05/27 09:15:50;;;;;;;2.65;0.90;;;15.50;99.90;;;;;;5075612;28;20020;-77
2021/05/27 09:18:29;;;;;;;2.63;1.00;;;15.60;99.90;;;;;;5074381;28;20098;-77
2021/05/27 09:20:55;;;;;;;3.75;1.15;;;15.10;99.90;;;;;;5075575;28;20021;-78
2021/05/27 09:23:21;;;;;;;4.07;1.38;;;14.80;99.90;;;;;;5074259;28;20047;-78
2021/05/27 09:26:04;;;;;;;3.30;1.00;;;14.70;99.90;;;;;;5075516;28;20093;-78
2021/05/27 09:28:30;;;;;;;3.55;1.13;;;14.50;99.90;;;;;;5075484;28;20025;-77
2021/05/27 09:30:58;;;;;;;3.80;0.80;;;14.30;99.90;;;;;;5074133;28;20036;-78
2021/05/27 09:33:30;;;;;;;2.25;0.90;;;14.10;99.90;;;;;;5075136;28;20381;-77
2021/05/27 09:36:01;;;;;;;2.20;0.70;;;14.00;99.90;;;;;;5074090;28;20025;-78
2021/05/27 09:38:28;;;;;;;2.63;0.82;;;14.40;99.90;;;;;;5074063;28;20392;-78
2021/05/27 09:40:54;;;;;;;1.80;0.80;;;14.70;99.90;;;;;;5075211;28;20052;-78
2021/05/27 09:43:22;;;;;;;2.35;0.80;;;15.20;99.90;;;;;;5075215;28;20052;-77
2021/05/27 09:46:02;;;;;;;2.88;0.85;;;15.00;99.90;;;;;;5074691;28;20032;-78
2021/05/27 09:48:28;;;;;;;2.47;0.77;;;14.80;99.90;;;;;;5073881;28;20025;-78
2021/05/27 09:50:59;;;;;;;2.55;0.98;;;14.60;99.90;;;;;;5075045;28;20581;-77
2021/05/27 09:53:27;;;;;;;2.17;0.88;;;15.10;99.90;;;;;;5073684;28;20040;-78
2021/05/27 09:55:54;;;;;;;3.00;1.02;;;15.60;99.90;;;;;;5073619;28;20162;-77
2021/05/27 09:58:20;;;;;;;1.10;0.68;;;16.20;99.90;;;;;;5073569;28;20036;-77
2021/05/27 10:00:48;;;;;;;7.18;0.93;;;16.00;99.90;;;;;;5073561;28;20033;-78
2021/05/27 10:03:36;;;;;;;1.52;0.70;;;15.60;99.90;;;;;;5074799;28;20101;-78
2021/05/27 10:06:05;;;;;;;5.63;0.60;;;15.30;99.90;;;;;;5073478;28;20031;-79
2021/05/27 10:08:49;;;;;;;2.25;0.68;;;15.10;99.90;;;;;;5074641;28;20013;-78
2021/05/27 10:11:16;;;;;;;2.13;0.80;;;15.00;99.90;;;;;;5074658;28;20025;-79
2021/05/27 10:13:42;;;;;;;2.03;0.77;;;15.10;99.90;;;;;;5072146;28;20135;-79
2021/05/27 10:16:15;;;;;;;1.55;0.70;;;;;;;;;;5074518;28;20534;-79
2021/05/27 10:18:42;;;;;;;2.17;0.65;;;;;;;;;;5074729;28;20021;-80
2021/05/27 10:21:08;;;;;;;2.35;0.90;;;;;;;;;;5073163;28;20392;-79
2021/05/27 10:23:34;;;;;;;2.90;0.52;;;;;;;;;;5073687;28;20033;-80
2021/05/27 10:26:00;;;;;;;2.13;0.95;;;;;;;;;;5074352;28;20498;-80
2021/05/27 10:28:27;;;;;;;2.60;0.75;;;;;;;;;;5072993;28;20119;-80
2021/05/27 10:30:53;;;;;;;3.63;0.80;;;;;;;;;;5072943;28;20036;-79
2021/05/27 10:33:20;;;;;;;2.28;0.77;;;;;;;;;;5074086;28;20051;-78
2021/05/27 10:35:55;;;;;;;4.43;0.80;;;;;;;;;;5072846;28;20021;-79
2021/05/27 10:38:40;;;;;;;2.33;0.68;;;;;;;;;;5072680;28;20016;-80
2021/05/27 10:41:06;;;;;;;;;;;;;;;;;;5074706;28;20021;-79
2021/05/27 10:43:32;;;;;;;3.22;0.98;;;;;;;;;;5072660;28;19912;-79
2021/05/27 10:46:02;;;;;;;3.05;0.77;;;;;;;;;;5072642;28;20031;-79
2021/05/27 10:48:29;;;;;;;3.08;0.68;;;;;;;;;;5072579;28;20056;-79
2021/05/27 10:53:38;;;;;;;5.93;0.60;;;;;;;;;;5074364;28;20041;-79
2021/05/27 10:56:04;;;;;;;1.58;0.77;;;;;;;;;;5072456;28;20476;-79
2021/05/27 10:58:49;;;;;;;2.70;0.93;;;;;;;;;;5072749;28;20031;-78
2021/05/27 11:01:15;;;;;;;1.67;0.80;;;;;;;;;;5072691;28;20032;-78
2021/05/27 11:03:42;;;;;;;3.03;0.60;;;;;;;;;;5073638;28;20024;-79
2021/05/27 11:06:25;;;;;;;3.03;0.50;;;;;;;;;;5073664;28;20028;-79
2021/05/27 11:09:10;;;;;;;1.40;0.60;;;;;;;;;;5072299;28;20035;-79
2021/05/27 11:11:40;;;;;;;;;;;;;;;;;;5074004;28;20021;-84
2021/05/27 11:14:16;;;;;;;2.58;0.82;;;;;;;;;;5073692;28;20011;-78
2021/05/27 11:17:01;;;;;;;1.63;0.73;;;;;;;;;;5073473;28;20028;-79
2021/05/27 11:19:26;;;;;;;;;;;;;;;;;;5072572;28;20077;-79
2021/05/27 11:21:52;;;;;;;3.67;0.70;;;16.80;99.90;;;;;;5072139;28;20002;-78
2021/05/27 11:24:37;;;;;;;2.55;0.75;;;16.90;99.90;;;;;;5071799;28;20028;-79
2021/05/27 11:27:40;;;;;;;4.25;0.95;;;17.50;99.90;;;;;;5072014;28;20021;-79
2021/05/27 11:30:40;;;;;;;3.38;0.80;;;18.70;99.90;;;;;;5061309;28;20028;-79
2021/05/27 11:33:15;;;;;;;1.13;0.60;;;18.00;99.90;;;;;;5073253;28;20116;-79
2021/05/27 11:35:44;;;;;;;1.58;0.65;;;17.50;99.90;;;;;;5073158;28;20135;-79
2021/05/27 11:38:18;;;;;;;2.15;0.60;;;17.20;99.90;;;;;;5072007;28;20433;-78
2021/05/27 11:40:47;;;;;;;3.03;0.70;;;16.70;99.90;;;;;;5073605;28;20425;-79
2021/05/27 11:43:14;;;;;;;3.78;0.85;;;16.30;99.90;;;;;;5073184;28;20037;-79
2021/05/27 11:45:51;;;;;;;4.13;0.80;;;16.00;99.90;;;;;;5071745;28;20115;-79
2021/05/27 11:48:25;;;;;;;1.58;0.80;;;16.10;99.90;;;;;;5071873;28;20021;-79
2021/05/27 11:51:01;;;;;;;2.13;0.63;;;;;;;;;;5073183;28;20013;-78
2021/05/27 11:53:28;;;;;;;2.53;0.60;;;;;;;;;;5071785;28;20048;-77
2021/05/27 11:55:55;;;;;;;2.88;0.82;;;;;;;;;;5071847;28;20074;-78
2021/05/27 11:58:40;;;;;;;2.40;0.73;;;;;;;;;;5071736;28;20025;-79
2021/05/27 12:01:17;;;;;;;2.40;0.70;;;;;;;;;;5071726;28;20021;-79
2021/05/27 12:04:01;;;;;;;6.43;0.73;;;;;;;;;;5073243;28;20049;-79
2021/05/27 12:06:27;;;;;;;1.50;0.70;;;;;;;;;;5073341;28;20038;-79
2021/05/27 12:08:53;;;;;;;4.28;0.50;;;;;;;;;;5071663;28;20032;-79
2021/05/27 12:11:28;;;;;;;4.60;0.70;;;;;;;;;;5072913;28;20052;-79
2021/05/27 12:14:01;;;;;;;1.27;0.60;;;;;;;;;;5071622;28;20032;-79
2021/05/27 12:16:31;;;;;;;2.58;0.70;;;;;;;;;;5071564;28;20021;-79
2021/05/27 12:19:04;;;;;;;1.95;0.60;;;;;;;;;;5072851;28;20024;-79
2021/05/27 12:21:31;;;;;;;1.33;0.70;;;;;;;;;;5072833;28;20016;-79
2021/05/27 12:23:57;;;;;;;1.92;0.52;;;;;;;;;;5073360;28;20262;-79
2021/05/27 12:26:23;;;;;;;2.15;0.60;;;16.40;99.90;;;;;;5071520;28;20430;-79
2021/05/27 12:28:49;;;;;;;2.53;0.68;;;16.20;99.90;;;;;;5072774;28;20100;-80
2021/05/27 12:31:15;;;;;;;3.08;0.55;;;16.80;99.90;;;;;;5071490;28;20110;-79
2021/05/27 12:33:41;;;;;;;0.70;0.40;;;17.10;99.90;;;;;;5071174;28;20064;-79
2021/05/27 12:36:10;;;;;;;4.00;0.40;;;17.30;99.90;;;;;;5071423;28;20029;-78
2021/05/27 12:38:44;;;;;;;4.45;0.88;;;17.40;99.90;;;;;;5076254;28;20013;-79
2021/05/27 12:41:11;;;;;;;1.83;0.60;;;17.20;99.90;;;;;;5076526;28;20021;-78
2021/05/27 12:43:41;;;;;;;2.10;0.70;;;17.40;99.90;;;;;;5074952;28;20033;-79
2021/05/27 12:46:09;;;;;;;4.28;0.70;;;18.50;99.90;;;;;;5076205;28;20024;-79
2021/05/27 12:48:50;;;;;;;1.00;0.50;;;18.30;99.90;;;;;;5076148;28;20078;-79
2021/05/27 12:51:17;;;;;;;1.58;0.60;;;17.90;99.90;;;;;;5074914;28;20082;-78
2021/05/27 12:53:46;;;;;;;4.38;1.08;;;17.40;99.90;;;;;;5074738;28;20542;-79
2021/05/27 12:56:15;;;;;;;2.85;0.80;;;17.30;99.90;;;;;;5074808;28;20028;-79
2021/05/27 12:58:43;;;;;;;5.18;0.88;;;17.10;99.90;;;;;;5075970;28;20096;-78
2021/05/27 13:01:09;;;;;;;1.67;0.70;;;17.00;99.90;;;;;;5075969;28;20420;-79
2021/05/27 13:03:50;;;;;;;1.90;0.68;;;16.90;99.90;;;;;;5074656;28;20021;-79
2021/05/27 13:06:22;;;;;;;4.65;0.80;;;16.70;99.90;;;;;;5075904;28;20078;-79
2021/05/27 13:08:55;;;;;;;3.30;0.55;;;16.70;99.90;;;;;;5075866;28;20509;-79
2021/05/27 13:11:25;;;;;;;1.40;0.60;;;16.60;99.90;;;;;;5076110;28;20468;-79
2021/05/27 13:13:53;;;;;;;1.55;0.60;;;16.60;99.90;;;;;;5074407;28;20020;-80
2021/05/27 13:16:36;;;;;;;2.35;0.77;;;16.40;99.90;;;;;;5074353;28;20043;-79
2021/05/27 13:19:03;;;;;;;1.98;0.73;;;16.10;99.90;;;;;;5074300;28;20020;-79